createdAt,value
2022-10-15T00:02:37.557Z,991.59
2022-10-15T00:07:36.467Z,991.56
2022-10-15T00:12:36.326Z,991.49
2022-10-15T00:17:36.330Z,991.37
2022-10-15T00:22:36.192Z,991.39
2022-10-15T00:27:36.191Z,991.32
2022-10-15T00:32:36.074Z,991.30
2022-10-15T00:37:36.094Z,991.29
2022-10-15T00:42:36.029Z,991.22
2022-10-15T00:47:35.992Z,991.21
2022-10-15T00:52:35.950Z,991.23
2022-10-15T00:57:36.924Z,991.27
2022-10-15T01:02:35.881Z,991.29
2022-10-15T01:07:35.668Z,991.27
2022-10-15T01:12:35.632Z,991.31
2022-10-15T01:17:35.573Z,991.29
2022-10-15T01:22:35.638Z,991.28
2022-10-15T01:27:35.603Z,991.27
2022-10-15T01:32:35.541Z,991.27
2022-10-15T01:37:35.388Z,991.26
2022-10-15T01:42:35.410Z,991.44
2022-10-15T01:47:35.237Z,991.45
2022-10-15T01:52:35.176Z,991.40
2022-10-15T01:57:35.126Z,991.40
2022-10-15T02:02:35.159Z,991.35
2022-10-15T02:07:35.086Z,991.26
2022-10-15T02:12:35.024Z,991.18
2022-10-15T02:17:34.979Z,991.24
2022-10-15T02:22:35.040Z,991.23
2022-10-15T02:27:34.775Z,991.21
2022-10-15T02:32:34.733Z,991.13
2022-10-15T02:37:34.688Z,991.09
2022-10-15T02:42:34.625Z,991.12
2022-10-15T02:47:34.714Z,991.16
2022-10-15T02:52:34.662Z,991.38
2022-10-15T02:57:34.498Z,991.37
2022-10-15T03:02:34.446Z,991.32
2022-10-15T03:07:34.491Z,991.17
2022-10-15T03:12:34.306Z,991.11
2022-10-15T03:17:34.249Z,991.20
2022-10-15T03:22:34.189Z,991.15
2022-10-15T03:27:34.247Z,991.03
2022-10-15T03:32:36.324Z,991.12
2022-10-15T03:37:34.124Z,990.95
2022-10-15T03:42:34.058Z,990.77
2022-10-15T03:47:33.996Z,990.76
2022-10-15T03:52:33.866Z,990.91
2022-10-15T03:57:33.803Z,990.87
2022-10-15T04:02:33.744Z,990.97
2022-10-15T04:07:33.679Z,990.91
2022-10-15T04:12:34.812Z,990.93
2022-10-15T06:13:49.950Z,991.12
2022-10-15T06:18:50.318Z,991.11
2022-10-15T06:23:50.992Z,991.14
2022-10-15T06:28:49.542Z,991.18
2022-10-15T06:33:48.911Z,991.23
2022-10-15T06:38:48.915Z,991.18
2022-10-15T06:43:48.894Z,991.27
2022-10-15T06:48:48.851Z,991.29
2022-10-15T06:53:48.725Z,991.24
2022-10-15T06:58:48.779Z,991.26
2022-10-15T07:03:49.650Z,991.34
2022-10-15T07:08:48.667Z,991.31
2022-10-15T07:13:48.529Z,991.35
2022-10-15T07:18:48.487Z,991.30
2022-10-15T07:23:48.409Z,991.35
2022-10-15T07:28:48.448Z,991.34
2022-10-15T07:33:48.342Z,991.37
2022-10-15T07:38:48.300Z,991.30
2022-10-15T07:43:50.165Z,991.45
2022-10-15T07:48:48.147Z,991.43
2022-10-15T07:53:48.116Z,991.39
2022-10-15T07:58:48.107Z,991.30
2022-10-15T08:03:48.007Z,991.27
2022-10-15T08:08:47.928Z,991.22
2022-10-15T08:13:47.853Z,991.06
2022-10-15T08:18:47.969Z,991.13
2022-10-15T08:23:47.803Z,991.01
2022-10-15T08:28:47.777Z,990.93
2022-10-15T08:33:47.883Z,991.00
2022-10-15T08:38:47.655Z,990.97
2022-10-15T08:43:47.563Z,990.83
2022-10-15T08:48:47.568Z,990.93
2022-10-15T08:53:47.487Z,990.89
2022-10-15T08:58:47.600Z,990.95
2022-10-15T09:03:49.575Z,990.81
2022-10-15T09:08:47.448Z,990.84
2022-10-15T09:13:47.350Z,990.89
2022-10-15T09:18:47.167Z,990.88
2022-10-15T09:23:47.174Z,990.70
2022-10-15T09:28:47.197Z,990.68
2022-10-15T09:33:47.196Z,990.68
2022-10-15T09:38:48.018Z,990.67
2022-10-15T09:43:47.034Z,990.53
2022-10-15T09:48:46.770Z,990.50
2022-10-15T09:53:47.120Z,990.60
2022-10-15T09:58:46.789Z,990.59
2022-10-15T10:03:46.792Z,990.58
2022-10-15T10:08:46.720Z,990.52
2022-10-15T10:13:47.610Z,990.51
2022-10-15T10:18:55.339Z,990.49
2022-10-15T10:23:46.457Z,990.29
2022-10-15T10:28:46.391Z,990.31
2022-10-15T10:33:46.387Z,990.35
2022-10-15T10:38:46.461Z,990.26
2022-10-15T10:43:46.348Z,990.21
2022-10-15T10:48:46.120Z,990.21
2022-10-15T10:53:46.075Z,990.06
2022-10-15T10:58:46.211Z,990.10
2022-10-15T11:03:46.003Z,990.20
2022-10-15T11:08:45.889Z,990.21
2022-10-15T11:13:45.891Z,990.10
2022-10-15T11:18:45.811Z,990.08
2022-10-15T11:23:45.782Z,990.04
2022-10-15T11:28:45.857Z,990.03
2022-10-15T11:33:45.701Z,989.96
2022-10-15T11:38:45.586Z,989.92
2022-10-15T11:43:45.497Z,989.92
2022-10-15T11:48:45.439Z,989.83
2022-10-15T11:53:45.503Z,989.67
2022-10-15T11:58:46.394Z,989.71
2022-10-15T12:03:45.425Z,989.72
2022-10-15T12:08:45.234Z,989.57
2022-10-15T12:13:45.153Z,989.55
2022-10-15T12:18:45.116Z,989.54
2022-10-15T12:23:45.068Z,989.52
2022-10-15T12:28:45.085Z,989.47
2022-10-15T12:33:45.016Z,989.43
2022-10-15T12:38:44.949Z,989.45
2022-10-15T12:43:44.883Z,989.40
2022-10-15T12:48:44.803Z,989.28
2022-10-15T12:53:44.773Z,989.33
2022-10-15T12:58:44.699Z,989.31
2022-10-15T13:03:44.623Z,989.30
2022-10-15T13:08:44.559Z,989.33
2022-10-15T13:13:44.510Z,989.32
2022-10-15T13:18:44.489Z,989.40
2022-10-15T13:23:44.596Z,989.36
2022-10-15T13:28:44.526Z,989.25
2022-10-15T13:33:44.486Z,989.22
2022-10-15T13:38:47.316Z,989.20
2022-10-15T13:43:44.185Z,989.25
2022-10-15T13:53:44.172Z,989.25
2022-10-15T13:58:44.092Z,989.21
2022-10-15T14:03:43.960Z,989.24
2022-10-15T14:08:44.090Z,989.24
2022-10-15T14:13:43.929Z,989.18
2022-10-15T14:18:48.139Z,989.31
2022-10-15T14:23:44.739Z,989.32
2022-10-15T14:28:43.804Z,989.29
2022-10-15T14:33:43.764Z,989.16
2022-10-15T14:38:44.734Z,989.17
2022-10-15T14:43:43.625Z,989.22
2022-10-15T14:48:43.571Z,989.29
2022-10-15T14:53:43.404Z,989.45
2022-10-15T14:58:43.567Z,989.53
2022-10-15T15:03:43.406Z,989.62
2022-10-15T15:08:43.283Z,989.56
2022-10-15T15:13:43.260Z,989.62
2022-10-15T15:18:43.214Z,989.56
2022-10-15T15:23:43.202Z,989.69
2022-10-15T15:28:43.108Z,989.77
2022-10-15T15:33:42.965Z,989.99
2022-10-15T15:38:43.072Z,989.88
2022-10-15T15:43:43.019Z,990.00
2022-10-15T15:48:42.848Z,990.08
2022-10-15T15:53:43.518Z,990.07
2022-10-15T15:58:43.090Z,990.19
2022-10-15T16:03:42.654Z,990.30
2022-10-15T16:08:42.731Z,990.42
2022-10-15T16:13:42.632Z,990.45
2022-10-15T16:18:42.698Z,990.46
2022-10-15T16:23:42.515Z,990.46
2022-10-15T16:28:42.498Z,990.62
2022-10-15T16:33:42.359Z,990.74
2022-10-15T16:38:44.412Z,990.81
2022-10-15T16:43:42.211Z,990.78
2022-10-15T16:48:42.228Z,991.01
2022-10-15T16:53:42.114Z,991.08
2022-10-15T16:58:42.163Z,991.06
2022-10-15T17:03:42.079Z,991.31
2022-10-15T17:08:41.940Z,991.46
2022-10-15T17:13:41.881Z,991.65
2022-10-15T17:18:41.898Z,991.74
2022-10-15T17:23:41.914Z,991.87
2022-10-15T17:28:41.831Z,991.96
2022-10-15T17:33:41.662Z,992.08
2022-10-15T17:38:41.621Z,992.17
2022-10-15T17:43:41.665Z,992.32
2022-10-15T17:48:41.600Z,992.44
2022-10-15T17:53:41.496Z,992.60
2022-10-15T17:58:41.484Z,992.58
2022-10-15T18:03:41.413Z,992.67
2022-10-15T18:08:41.311Z,992.64
2022-10-15T18:13:41.210Z,992.70
2022-10-15T18:18:41.202Z,992.85
2022-10-15T18:23:41.155Z,992.82
2022-10-15T18:28:41.236Z,992.89
2022-10-15T18:33:41.132Z,992.93
2022-10-15T18:38:41.092Z,992.89
2022-10-15T18:43:43.118Z,992.94
2022-10-15T18:48:40.863Z,993.02
2022-10-15T18:53:40.799Z,992.98
2022-10-15T18:58:40.728Z,993.10
2022-10-15T19:03:41.724Z,993.18
2022-10-15T19:08:40.621Z,993.12
2022-10-15T19:13:40.675Z,993.06
2022-10-15T19:18:40.640Z,993.08
2022-10-15T19:23:40.479Z,993.17
2022-10-15T19:28:40.468Z,993.33
2022-10-15T19:33:40.434Z,993.47
2022-10-15T19:38:40.491Z,993.41
2022-10-15T19:43:40.399Z,993.46
2022-10-15T19:48:40.218Z,993.48
2022-10-15T19:53:40.241Z,993.52
2022-10-15T19:58:40.097Z,993.52
2022-10-15T20:03:40.187Z,993.57
2022-10-15T20:08:40.155Z,993.66
2022-10-15T20:13:40.059Z,993.64
2022-10-15T20:18:39.895Z,993.66
2022-10-15T20:23:39.835Z,993.72
2022-10-15T20:28:39.850Z,993.77
2022-10-15T20:33:39.797Z,993.97
2022-10-15T20:38:39.794Z,993.96
2022-10-15T20:43:39.705Z,993.92
2022-10-15T20:48:39.587Z,994.05
2022-10-15T20:53:39.510Z,994.10
2022-10-15T20:58:39.513Z,994.29
2022-10-15T21:03:39.537Z,994.40
2022-10-15T21:08:39.492Z,994.33
2022-10-15T21:13:39.476Z,994.43
2022-10-15T21:18:39.372Z,994.40
2022-10-15T21:23:39.183Z,994.44
2022-10-15T21:28:39.313Z,994.63
2022-10-15T21:33:39.067Z,994.63
2022-10-15T21:38:39.143Z,994.64
2022-10-15T21:43:39.099Z,994.66
2022-10-15T21:48:40.065Z,994.69
2022-10-15T21:53:47.882Z,994.76
2022-10-15T21:58:38.752Z,994.90
2022-10-15T22:03:38.736Z,994.95
2022-10-15T22:08:38.759Z,994.87
2022-10-15T22:13:38.706Z,994.83
2022-10-15T22:18:38.622Z,994.84
2022-10-15T22:23:38.571Z,994.80
2022-10-15T22:28:38.481Z,994.87
2022-10-15T22:33:38.404Z,994.80
2022-10-15T22:38:38.344Z,994.88
2022-10-15T22:43:38.270Z,994.75
2022-10-15T22:48:38.270Z,994.78
2022-10-15T22:53:38.222Z,994.82
2022-10-15T22:58:38.163Z,994.87
2022-10-15T23:03:38.068Z,994.87
2022-10-15T23:08:38.025Z,994.92
2022-10-15T23:13:38.099Z,994.94
2022-10-15T23:18:38.024Z,994.94
2022-10-15T23:23:37.949Z,995.05
2022-10-15T23:28:37.950Z,995.07
2022-10-15T23:33:37.728Z,994.94
2022-10-15T23:38:37.747Z,995.09
2022-10-15T23:43:37.628Z,995.11
2022-10-15T23:48:37.557Z,995.07
2022-10-15T23:53:37.622Z,995.05
2022-10-15T23:58:37.479Z,995.04
